Time;durP1;ratioP1;P1;durP2;ratioP2;P2;SDS_P1;SDS_P2;PMS_P1;PMS_P2;Temp;Humidity;BMP_temperature;BMP_pressure;BME280_temperature;BME280_humidity;BME280_pressure;Samples;Min_cycle;Max_cycle;Signal;HPM_P1;HPM_P2
2022/07/08 00:01:46;;;;;;;10.23;5.25;;;;;;;20.93;nan;-24399.00;4942758;28;20174;-59
2022/07/08 00:04:11;;;;;;;9.55;5.40;;;;;;;20.89;nan;-24397.91;4941021;28;20272;-59
2022/07/08 00:06:37;;;;;;;11.07;5.57;;;;;;;20.61;nan;-24390.13;4941272;28;20177;-60
2022/07/08 00:09:03;;;;;;;8.65;5.15;;;;;;;20.56;nan;-24388.88;4946448;28;20206;-59
2022/07/08 00:11:28;;;;;;;8.55;5.50;;;;;;;19.66;nan;-24364.16;4943078;28;20197;-60
2022/07/08 00:13:54;;;;;;;10.30;5.68;;;;;;;20.60;nan;-24389.97;4944033;28;20182;-59
2022/07/08 00:16:19;;;;;;;9.48;5.22;;;;;;;20.54;nan;-24388.31;4939444;28;20214;-60
2022/07/08 00:18:45;;;;;;;9.13;5.20;;;;;;;21.05;nan;-24402.19;4939139;28;20191;-59
2022/07/08 00:21:10;;;;;;;7.63;4.68;;;;;;;21.13;nan;-24404.56;4939090;28;21729;-59
2022/07/08 00:23:36;;;;;;;8.38;4.93;;;;;;;20.82;nan;-24395.94;4940754;28;20181;-59
2022/07/08 00:26:01;;;;;;;8.13;4.45;;;;;;;20.92;nan;-24398.59;4942654;28;20217;-59
2022/07/08 00:28:27;;;;;;;7.60;4.45;;;;;;;20.73;nan;-24393.59;4942120;28;20615;-59
2022/07/08 00:30:52;;;;;;;9.43;4.78;;;;;;;20.97;nan;-24400.13;4935994;28;20233;-59
2022/07/08 00:33:18;;;;;;;10.27;4.68;;;;;;;20.78;nan;-24394.84;4940942;28;20193;-58
2022/07/08 00:35:43;;;;;;;8.32;4.95;;;;;;;20.72;nan;-24393.31;4940044;28;20182;-59
2022/07/08 00:38:09;;;;;;;7.90;4.65;;;;;;;20.64;nan;-24390.97;4941344;28;20177;-59
2022/07/08 00:40:34;;;;;;;7.40;4.75;;;;;;;20.70;nan;-24392.75;4944544;28;20194;-59
2022/07/08 00:43:00;;;;;;;8.35;4.95;;;;;;;21.00;nan;-24400.81;4936069;28;20205;-59
2022/07/08 00:45:26;;;;;;;7.97;4.72;;;;;;;21.00;nan;-24400.94;4937103;28;20195;-58
2022/07/08 00:47:52;;;;;;;8.07;4.70;;;;;;;20.64;nan;-24391.09;4929836;28;20181;-59
2022/07/08 00:50:17;;;;;;;6.90;4.20;;;;;;;20.85;nan;-24396.66;4925521;28;20184;-58
2022/07/08 00:52:43;;;;;;;7.25;4.85;;;;;;;20.83;nan;-24396.09;4934457;28;20178;-58
2022/07/08 00:55:09;;;;;;;7.60;4.65;;;;;;;20.21;nan;-24379.28;4940376;28;20243;-59
2022/07/08 00:57:38;;;;;;;8.25;4.75;;;;;;;20.68;nan;-24392.19;4942712;28;20301;-58
2022/07/08 01:00:05;;;;;;;7.80;4.55;;;;;;;20.85;nan;-24396.78;4940970;28;20200;-59
2022/07/08 01:02:31;;;;;;;8.75;4.93;;;;;;;20.75;nan;-24393.88;4939144;28;20196;-59
2022/07/08 01:04:57;;;;;;;9.82;5.43;;;;;;;20.66;nan;-24391.50;4940397;28;20213;-60
2022/07/08 01:07:24;;;;;;;8.95;5.60;;;;;;;20.88;nan;-24397.47;4937780;28;20182;-59
2022/07/08 01:09:50;;;;;;;9.80;5.80;;;;;;;20.97;nan;-24399.97;4935727;28;20228;-59
2022/07/08 01:12:16;;;;;;;10.60;5.88;;;;;;;20.95;nan;-24399.41;4956399;28;20185;-59
2022/07/08 01:14:42;;;;;;;12.25;5.88;;;;;;;20.97;nan;-24399.97;4942954;28;20261;-59
2022/07/08 01:17:08;;;;;;;11.55;5.75;;;;;;;21.03;nan;-24401.63;4942375;28;20182;-59
2022/07/08 01:19:33;;;;;;;9.65;6.03;;;;;;;20.97;nan;-24400.13;4941425;28;20620;-59
2022/07/08 01:21:59;;;;;;;12.38;6.40;;;;;;;20.93;nan;-24398.88;4940621;28;20208;-60
2022/07/08 01:24:24;;;;;;;14.23;6.65;;;;;;;20.49;nan;-24386.78;4940998;28;20208;-60
2022/07/08 01:26:50;;;;;;;12.00;6.53;;;;;;;20.46;nan;-24386.09;4940785;28;20178;-59
2022/07/08 01:29:16;;;;;;;11.13;6.57;;;;;;;20.25;nan;-24380.41;4940404;28;20221;-59
2022/07/08 01:31:41;;;;;;;10.27;6.45;;;;;;;20.42;nan;-24384.84;4944346;28;20224;-59
2022/07/08 01:34:07;;;;;;;9.13;5.47;;;;;;;20.47;nan;-24386.25;4934951;28;21728;-59
2022/07/08 01:36:32;;;;;;;11.25;6.13;;;;;;;20.26;nan;-24380.69;4936718;28;20181;-59
2022/07/08 01:38:58;;;;;;;9.55;5.53;;;;;;;20.45;nan;-24385.69;4937912;28;20673;-59
2022/07/08 01:41:23;;;;;;;11.45;5.97;;;;;;;20.19;nan;-24378.59;4940034;28;20186;-59
2022/07/08 01:43:50;;;;;;;9.15;5.70;;;;;;;20.42;nan;-24384.84;4944133;28;20975;-59
2022/07/08 01:46:16;;;;;;;9.82;6.20;;;;;;;20.36;nan;-24383.31;4936660;28;20277;-58
2022/07/08 01:48:41;;;;;;;11.15;6.22;;;;;;;20.10;nan;-24376.25;4935729;28;20235;-60
2022/07/08 01:51:07;;;;;;;9.10;5.47;;;;;;;20.00;nan;-24373.31;4946672;28;20221;-60
2022/07/08 01:53:32;;;;;;;9.27;5.10;;;;;;;19.80;nan;-24367.91;4941267;28;20232;-60
2022/07/08 01:55:58;;;;;;;11.68;5.78;;;;;;;19.81;nan;-24368.19;4940013;28;20572;-59
2022/07/08 01:58:23;;;;;;;8.93;5.63;;;;;;;20.10;nan;-24376.09;4943950;28;20193;-59
2022/07/08 02:00:49;;;;;;;11.30;5.97;;;;;;;;;;4942218;28;20182;-59
2022/07/08 02:03:14;;;;;;;9.52;6.07;;;;;;;20.14;nan;-24377.22;4942499;28;20220;-59
2022/07/08 02:05:39;;;;;;;11.98;6.57;;;;;;;20.35;nan;-24382.91;4940276;28;20184;-60
2022/07/08 02:08:05;;;;;;;11.77;6.15;;;;;;;18.94;nan;-24344.25;4960743;28;21004;-59
2022/07/08 02:13:16;;;;;;;11.07;6.22;;;;;;;19.72;nan;-24365.69;4944502;28;21565;-59
2022/07/08 02:15:42;;;;;;;10.18;6.10;;;;;;;20.04;nan;-24374.44;4943460;28;20618;-59
2022/07/08 02:18:08;;;;;;;9.50;6.22;;;;;;;19.96;nan;-24372.34;4943032;28;21617;-61
2022/07/08 02:20:33;;;;;;;12.15;7.00;;;;;;;19.74;nan;-24366.38;4944699;28;20255;-61
2022/07/08 02:22:58;;;;;;;14.57;7.32;;;;;;;19.64;nan;-24363.44;4937782;28;20221;-59
2022/07/08 02:25:24;;;;;;;11.00;6.47;;;;;;;19.63;nan;-24363.16;4933954;28;20182;-62
2022/07/08 02:27:49;;;;;;;12.10;6.93;;;;;;;19.85;nan;-24369.28;4929091;28;20189;-60
2022/07/08 02:30:15;;;;;;;12.32;7.22;;;;;;;19.93;nan;-24371.50;4932844;28;20260;-59
2022/07/08 02:32:40;;;;;;;11.43;6.47;;;;;;;19.83;nan;-24368.88;4938878;28;20681;-59
2022/07/08 02:35:06;;;;;;;14.68;6.45;;;;;;;19.95;nan;-24372.06;4938971;28;20204;-59
2022/07/08 02:37:32;;;;;;;12.63;6.03;;;;;;;19.68;nan;-24364.56;4946210;28;20212;-59
2022/07/08 02:39:57;;;;;;;9.38;6.18;;;;;;;19.95;nan;-24372.06;4941655;28;20194;-60
2022/07/08 02:42:24;;;;;;;11.20;6.32;;;;;;;20.01;nan;-24373.72;4938903;28;20617;-61
2022/07/08 02:44:49;;;;;;;11.70;6.63;;;;;;;20.02;nan;-24374.00;4943052;28;22608;-60
2022/07/08 02:48:09;;;;;;;11.45;6.25;;;;;;;20.13;nan;-24376.94;4944931;28;20197;-59
2022/07/08 02:50:38;;;;;;;11.77;6.10;;;;;;;20.02;nan;-24374.00;4928422;28;20209;-58
2022/07/08 02:53:03;;;;;;;15.05;5.93;;;;;;;19.97;nan;-24372.50;4943495;28;20193;-58
2022/07/08 02:55:29;;;;;;;10.30;6.05;;;;;;;20.09;nan;-24375.81;4940041;28;20244;-59
2022/07/08 02:57:54;;;;;;;11.02;6.15;;;;;;;19.96;nan;-24372.34;4940689;28;20683;-58
2022/07/08 03:00:22;;;;;;;11.63;6.22;;;;;;;19.94;nan;-24371.78;4940488;28;20277;-59
2022/07/08 03:02:48;;;;;;;10.50;6.18;;;;;;;19.75;nan;-24366.50;4930069;28;20192;-59
2022/07/08 03:05:13;;;;;;;10.93;6.38;;;;;;;20.10;nan;-24376.25;4944098;28;20177;-60
2022/07/08 03:07:38;;;;;;;13.85;7.00;;;;;;;19.82;nan;-24368.47;4938374;28;20190;-60
2022/07/08 03:10:04;;;;;;;10.63;6.22;;;;;;;20.23;nan;-24379.84;4940716;28;20233;-58
2022/07/08 03:12:30;;;;;;;11.93;5.95;;;;;;;20.18;nan;-24378.31;4941645;28;20713;-58
2022/07/08 03:14:55;;;;;;;9.90;5.55;;;;;;;20.71;nan;-24393.03;4940686;28;20190;-59
2022/07/08 03:17:21;;;;;;;9.25;5.43;;;;;;;20.76;nan;-24394.16;4928579;28;22266;-58
2022/07/08 03:19:46;;;;;;;8.98;5.63;;;;;;;21.20;nan;-24406.34;4925982;28;20221;-59
2022/07/08 03:22:12;;;;;;;12.55;6.28;;;;;;;21.74;nan;-24421.19;4923220;28;21486;-59
2022/07/08 03:24:37;;;;;;;9.27;5.60;;;;;;;21.73;nan;-24420.91;4924458;28;20198;-59
2022/07/08 03:27:03;;;;;;;9.77;5.60;;;;;;;22.39;nan;-24438.91;4924090;28;20189;-59
2022/07/08 03:29:29;;;;;;;9.27;5.75;;;;;;;22.90;nan;-24453.00;4923761;28;20214;-59
2022/07/08 03:31:54;;;;;;;9.43;6.10;;;;;;;23.73;nan;-24475.66;4923783;28;20181;-59
2022/07/08 03:34:20;;;;;;;10.80;5.78;;;;;;;23.05;nan;-24457.03;4923369;28;20268;-59
2022/07/08 03:36:45;;;;;;;10.60;5.70;;;;;;;22.70;nan;-24447.34;4924010;28;20280;-59
2022/07/08 03:39:11;;;;;;;8.82;5.25;;;;;;;23.59;nan;-24471.66;4932278;28;21717;-59
2022/07/08 03:41:36;;;;;;;10.00;5.30;;;;;;;25.15;nan;-24514.13;4930369;28;20582;-59
2022/07/08 03:44:02;;;;;;;9.18;5.15;;;;;;;25.95;nan;-24536.13;4924244;28;20313;-59
2022/07/08 03:46:27;;;;;;;9.27;5.20;;;;;;;26.93;nan;-24562.66;4933311;28;20309;-58
2022/07/08 03:48:52;;;;;;;8.60;5.22;;;;;;;27.59;nan;-24580.59;4936235;28;20530;-59
2022/07/08 03:51:20;;;;;;;9.73;5.47;;;;;;;28.44;nan;-24603.59;4926925;28;20190;-59
2022/07/08 03:53:45;;;;;;;8.63;5.22;;;;;;;28.99;nan;-24618.50;4928333;28;21315;-59
2022/07/08 03:56:11;;;;;;;8.95;4.88;;;;;;;26.44;nan;-24549.19;4919702;28;20209;-60
2022/07/08 03:58:37;;;;;;;9.73;5.50;;;;;;;28.93;nan;-24616.75;4928735;28;20236;-59
2022/07/08 04:01:03;;;;;;;8.30;5.22;;;;;;;22.34;nan;-24437.66;4937381;28;20236;-59
2022/07/08 04:03:29;;;;;;;10.40;4.82;;;;;;;30.56;nan;-24660.69;4936816;28;20560;-59
2022/07/08 04:05:54;;;;;;;7.43;4.72;;;;;;;30.61;nan;-24662.16;4936995;28;20200;-59
2022/07/08 04:08:20;;;;;;;8.48;4.93;;;;;;;30.71;nan;-24664.91;4931069;28;20224;-59
2022/07/08 04:10:45;;;;;;;7.32;4.72;;;;;;;31.40;nan;-24683.41;4925560;28;20261;-60
2022/07/08 04:13:11;;;;;;;7.97;5.00;;;;;;;31.63;nan;-24689.41;4929488;28;20189;-59
2022/07/08 04:15:36;;;;;;;6.95;4.53;;;;;;;32.19;nan;-24704.47;4933915;28;20204;-58
2022/07/08 04:18:02;;;;;;;8.18;4.60;;;;;;;31.16;nan;-24676.88;4935527;28;20731;-59
2022/07/08 04:20:28;;;;;;;7.05;4.55;;;;;;;30.49;nan;-24658.91;4934428;28;20238;-58
2022/07/08 04:22:54;;;;;;;7.50;4.65;;;;;;;29.32;nan;-24627.41;4938449;28;20281;-58
2022/07/08 04:25:20;;;;;;;7.75;4.78;;;;;;;27.78;nan;-24585.69;4937420;28;20228;-58
2022/07/08 04:27:46;;;;;;;7.70;4.70;;;;;;;26.82;nan;-24559.75;4936918;28;20193;-59
2022/07/08 04:30:11;;;;;;;7.25;4.75;;;;;;;26.02;nan;-24537.78;4937190;28;21908;-59
2022/07/08 04:32:37;;;;;;;9.38;5.55;;;;;;;25.15;nan;-24514.13;4937392;28;20185;-60
2022/07/08 04:35:03;;;;;;;8.27;5.25;;;;;;;24.74;nan;-24502.97;4940985;28;20653;-61
2022/07/08 04:37:29;;;;;;;8.65;5.15;;;;;;;24.44;nan;-24494.84;4953691;28;20786;-59
2022/07/08 04:39:55;;;;;;;10.25;5.65;;;;;;;22.63;nan;-24445.53;4941558;28;20197;-59
2022/07/08 04:42:20;;;;;;;9.73;5.38;;;;;;;24.02;nan;-24483.53;4932654;28;20320;-58
2022/07/08 04:44:46;;;;;;;7.90;4.78;;;;;;;23.68;nan;-24474.16;4942060;28;22148;-58
2022/07/08 04:47:11;;;;;;;8.27;4.95;;;;;;;23.34;nan;-24464.91;4940675;28;20253;-59
2022/07/08 04:49:37;;;;;;;10.38;5.50;;;;;;;23.03;nan;-24456.47;4934155;28;20711;-59
2022/07/08 04:52:06;;;;;;;11.27;5.53;;;;;;;23.31;nan;-24464.06;4942765;28;20536;-58
2022/07/08 04:54:32;;;;;;;9.70;5.50;;;;;;;23.96;nan;-24481.88;4950612;28;20189;-57
2022/07/08 04:56:58;;;;;;;9.30;5.65;;;;;;;25.89;nan;-24534.34;4948481;28;20285;-58
2022/07/08 04:59:24;;;;;;;7.68;5.07;;;;;;;27.61;nan;-24581.16;4949931;28;20192;-57
2022/07/08 05:01:49;;;;;;;9.38;5.60;;;;;;;28.64;nan;-24608.81;4947905;28;20213;-58
2022/07/08 05:04:15;;;;;;;8.98;5.55;;;;;;;29.26;nan;-24625.75;4952346;28;20177;-58
2022/07/08 05:06:40;;;;;;;12.30;6.20;;;;;;;29.78;nan;-24639.81;4949875;28;20251;-58
2022/07/08 05:09:06;;;;;;;7.80;5.00;;;;;;;29.95;nan;-24644.19;4950944;28;20301;-59
2022/07/08 05:11:31;;;;;;;9.50;5.30;;;;;;;30.07;nan;-24647.44;4948069;28;20662;-59
2022/07/08 05:13:56;;;;;;;7.18;5.07;;;;;;;30.11;nan;-24648.69;4949032;28;20660;-59
2022/07/08 05:16:22;;;;;;;7.93;5.07;;;;;;;30.54;nan;-24660.13;4951054;28;20194;-57
2022/07/08 05:18:47;;;;;;;9.07;5.40;;;;;;;30.71;nan;-24664.91;4949967;28;20673;-58
2022/07/08 05:21:13;;;;;;;9.60;5.18;;;;;;;30.96;nan;-24671.44;4949093;28;20188;-57
2022/07/08 05:23:38;;;;;;;8.75;5.35;;;;;;;30.81;nan;-24667.34;4948934;28;20186;-57
2022/07/08 05:26:04;;;;;;;8.70;5.50;;;;;;;31.10;nan;-24675.25;4950713;28;20279;-57
2022/07/08 05:28:29;;;;;;;9.13;5.78;;;;;;;31.37;nan;-24682.44;4950700;28;20216;-58
2022/07/08 05:30:55;;;;;;;8.63;5.45;;;;;;;30.91;nan;-24670.22;4953026;28;20564;-60
2022/07/08 05:33:20;;;;;;;9.40;6.05;;;;;;;30.34;nan;-24654.81;4954600;28;20224;-60
2022/07/08 05:35:46;;;;;;;14.70;6.47;;;;;;;29.46;nan;-24630.94;4951984;28;20188;-60
2022/07/08 05:38:11;;;;;;;8.38;5.43;;;;;;;24.47;nan;-24495.81;4951783;28;20185;-60
2022/07/08 05:40:37;;;;;;;9.15;5.65;;;;;;;29.14;nan;-24622.34;4954010;28;20192;-60
2022/07/08 05:43:03;;;;;;;10.00;6.03;;;;;;;29.57;nan;-24634.09;4955498;28;20191;-60
2022/07/08 05:45:29;;;;;;;8.57;5.43;;;;;;;29.89;nan;-24642.53;4954657;28;20183;-58
2022/07/08 05:47:54;;;;;;;8.93;5.50;;;;;;;29.20;nan;-24624.13;4953555;28;20552;-57
2022/07/08 05:50:19;;;;;;;9.10;5.50;;;;;;;29.25;nan;-24625.34;4954623;28;20622;-59
2022/07/08 05:52:45;;;;;;;7.50;5.20;;;;;;;29.13;nan;-24622.06;4956025;28;20192;-59
2022/07/08 05:55:10;;;;;;;11.07;6.43;;;;;;;28.60;nan;-24607.84;4954117;28;20628;-60
2022/07/08 05:57:36;;;;;;;10.27;6.28;;;;;;;28.23;nan;-24597.72;4954478;28;20260;-59
2022/07/08 06:00:02;;;;;;;10.30;5.70;;;;;;;28.01;nan;-24591.84;4951834;28;20207;-59
2022/07/08 06:02:27;;;;;;;9.48;5.20;;;;;;;27.56;nan;-24579.78;4951429;28;20245;-58
2022/07/08 06:04:53;;;;;;;10.68;6.50;;;;;;;27.36;nan;-24574.31;4954454;28;20193;-59
2022/07/08 06:07:18;;;;;;;11.45;5.85;;;;;;;27.36;nan;-24574.31;4951648;28;20190;-59
2022/07/08 06:09:43;;;;;;;10.10;6.10;;;;;;;27.15;nan;-24568.69;4954414;28;20667;-58
2022/07/08 06:12:09;;;;;;;10.85;6.50;;;;;;;26.03;nan;-24538.06;4953050;28;20179;-58
2022/07/08 06:14:35;;;;;;;13.45;6.95;;;;;;;26.08;nan;-24539.44;4954861;28;20185;-57
2022/07/08 06:17:00;;;;;;;10.40;6.00;;;;;;;26.41;nan;-24548.38;4953370;28;20177;-59
2022/07/08 06:19:26;;;;;;;12.48;5.88;;;;;;;26.89;nan;-24561.41;4954938;28;20690;-60
2022/07/08 06:21:51;;;;;;;9.98;5.90;;;;;;;27.58;nan;-24580.19;4951344;28;20185;-61
2022/07/08 06:24:17;;;;;;;9.05;5.38;;;;;;;28.18;nan;-24596.34;4954389;28;20174;-60
2022/07/08 06:26:43;;;;;;;10.50;5.80;;;;;;;28.26;nan;-24598.69;4953680;28;20701;-60
2022/07/08 06:29:09;;;;;;;9.15;5.20;;;;;;;28.51;nan;-24605.38;4955114;28;20511;-60
2022/07/08 06:31:38;;;;;;;9.90;5.75;;;;;;;27.77;nan;-24585.41;4953993;28;20186;-59
2022/07/08 06:34:04;;;;;;;8.35;5.60;;;;;;;28.80;nan;-24613.31;4954866;28;20185;-60
2022/07/08 06:36:32;;;;;;;8.00;5.22;;;;;;;28.47;nan;-24604.28;4953926;28;20293;-60
2022/07/08 06:38:58;;;;;;;9.05;5.00;;;;;;;28.25;nan;-24598.28;4953824;28;20192;-58
2022/07/08 06:41:24;;;;;;;8.35;5.25;;;;;;;28.54;nan;-24606.34;4954262;28;20739;-59
2022/07/08 06:43:49;;;;;;;9.02;5.50;;;;;;;28.77;nan;-24612.50;4954829;28;20265;-58
2022/07/08 06:46:15;;;;;;;14.93;5.25;;;;;;;28.88;nan;-24615.50;4951896;28;20494;-58
2022/07/08 06:48:41;;;;;;;8.32;5.20;;;;;;;28.86;nan;-24614.81;4952549;28;20205;-57
2022/07/08 06:51:07;;;;;;;8.45;5.32;;;;;;;28.01;nan;-24591.84;4958150;28;20194;-59
2022/07/08 06:56:16;;;;;;;8.65;5.30;;;;;;;28.30;nan;-24599.66;4952118;28;20299;-58
2022/07/08 06:58:42;;;;;;;7.25;5.10;;;;;;;28.83;nan;-24614.00;4952117;28;20186;-60
2022/07/08 07:01:07;;;;;;;9.77;5.63;;;;;;;28.94;nan;-24617.16;4951395;28;20185;-60
2022/07/08 07:03:33;;;;;;;7.70;5.25;;;;;;;29.19;nan;-24623.69;4951139;28;20174;-58
2022/07/08 07:05:58;;;;;;;8.00;5.05;;;;;;;29.12;nan;-24621.78;4952000;28;20208;-59
2022/07/08 07:08:24;;;;;;;7.10;4.78;;;;;;;29.26;nan;-24625.63;4953822;28;20227;-59
2022/07/08 07:10:49;;;;;;;7.28;4.90;;;;;;;29.71;nan;-24637.75;4952232;28;20181;-60
2022/07/08 07:13:14;;;;;;;9.23;5.18;;;;;;;29.82;nan;-24640.78;4952804;28;20680;-60
2022/07/08 07:15:40;;;;;;;8.07;5.18;;;;;;;29.42;nan;-24630.00;4953619;28;20177;-59
2022/07/08 07:18:06;;;;;;;7.57;4.95;;;;;;;29.25;nan;-24625.47;4952593;28;20181;-59
2022/07/08 07:20:31;;;;;;;7.22;4.68;;;;;;;28.36;nan;-24601.28;4951005;28;20268;-59
2022/07/08 07:22:56;;;;;;;7.68;5.15;;;;;;;27.80;nan;-24586.22;4952992;28;20212;-59
2022/07/08 07:25:22;;;;;;;7.35;5.00;;;;;;;27.85;nan;-24587.59;4952961;28;20208;-59
2022/07/08 07:27:47;;;;;;;7.30;4.65;;;;;;;27.86;nan;-24587.72;4952452;28;20193;-59
2022/07/08 07:30:13;;;;;;;7.50;4.60;;;;;;;27.88;nan;-24588.41;4951248;28;20794;-59
2022/07/08 07:32:38;;;;;;;8.73;4.88;;;;;;;28.34;nan;-24600.88;4952527;28;20623;-59
2022/07/08 07:35:04;;;;;;;8.18;4.82;;;;;;;28.69;nan;-24610.16;4953717;28;20177;-59
2022/07/08 07:37:35;;;;;;;7.05;4.72;;;;;;;23.70;nan;-24474.84;4954763;28;21205;-59
2022/07/08 07:40:03;;;;;;;8.30;5.05;;;;;;;28.41;nan;-24602.78;4954944;28;20193;-61
2022/07/08 07:42:28;;;;;;;7.72;5.10;;;;;;;27.56;nan;-24579.78;4952907;28;20173;-58
2022/07/08 07:44:53;;;;;;;7.22;4.82;;;;;;;27.22;nan;-24570.47;4952324;28;20185;-59
2022/07/08 07:47:19;;;;;;;8.80;5.47;;;;;;;27.71;nan;-24583.75;4952102;28;20310;-59
2022/07/08 07:49:44;;;;;;;6.88;4.90;;;;;;;28.22;nan;-24597.59;4953231;28;20232;-59
2022/07/08 07:52:10;;;;;;;8.30;5.15;;;;;;;27.89;nan;-24588.69;4953500;28;20186;-58
2022/07/08 07:54:35;;;;;;;7.60;5.07;;;;;;;27.84;nan;-24587.31;4952862;28;20229;-58
2022/07/08 07:57:01;;;;;;;7.07;5.18;;;;;;;28.30;nan;-24599.78;4953198;28;20715;-57
2022/07/08 07:59:26;;;;;;;7.63;5.15;;;;;;;28.77;nan;-24612.50;4951209;28;20272;-58
2022/07/08 08:01:52;;;;;;;7.18;4.82;;;;;;;29.18;nan;-24623.44;4952336;28;20259;-58
2022/07/08 08:04:17;;;;;;;6.65;5.00;;;;;;;29.19;nan;-24623.84;4951662;28;20264;-57
2022/07/08 08:06:42;;;;;;;6.85;4.88;;;;;;;29.06;nan;-24620.16;4956407;28;20178;-58
2022/07/08 08:09:08;;;;;;;7.43;5.18;;;;;;;29.25;nan;-24625.47;4954874;28;21769;-58
2022/07/08 08:11:33;;;;;;;8.60;5.05;;;;;;;29.37;nan;-24628.75;4952300;28;20280;-58
2022/07/08 08:13:59;;;;;;;7.63;5.10;;;;;;;29.23;nan;-24624.78;4952608;28;20188;-58
2022/07/08 08:16:24;;;;;;;7.18;4.70;;;;;;;29.10;nan;-24621.38;4952789;28;20200;-57
2022/07/08 08:18:50;;;;;;;11.40;5.60;;;;;;;28.74;nan;-24611.69;4952141;28;20177;-58
2022/07/08 08:21:15;;;;;;;7.22;5.03;;;;;;;27.82;nan;-24586.78;4950774;28;20181;-57
2022/07/08 08:23:41;;;;;;;13.45;5.65;;;;;;;27.92;nan;-24589.50;4953378;28;20191;-59
2022/07/08 08:26:06;;;;;;;8.77;5.25;;;;;;;27.59;nan;-24580.47;4954095;28;20197;-59
2022/07/08 08:28:31;;;;;;;7.05;4.55;;;;;;;27.89;nan;-24588.56;4954429;28;20248;-59
2022/07/08 08:30:57;;;;;;;8.95;5.57;;;;;;;28.24;nan;-24598.00;4948657;28;20188;-59
2022/07/08 08:33:23;;;;;;;7.78;5.22;;;;;;;28.55;nan;-24606.63;4950089;28;20201;-59
2022/07/08 08:35:49;;;;;;;9.82;5.65;;;;;;;28.95;nan;-24617.41;4952213;28;21801;-58
2022/07/08 08:38:15;;;;;;;9.80;5.82;;;;;;;28.94;nan;-24617.16;4957087;28;20181;-59
2022/07/08 08:40:42;;;;;;;9.32;5.90;;;;;;;28.91;nan;-24616.19;4959837;28;20687;-58
2022/07/08 08:43:07;;;;;;;7.93;5.63;;;;;;;29.38;nan;-24628.91;4959646;28;20181;-59
2022/07/08 08:45:34;;;;;;;9.95;5.63;;;;;;;29.21;nan;-24624.25;4959670;28;20679;-59
2022/07/08 08:48:05;;;;;;;8.32;5.57;;;;;;;29.44;nan;-24630.41;4958737;28;20181;-58
2022/07/08 08:53:17;;;;;;;10.05;6.22;;;;;;;28.96;nan;-24617.69;4956309;28;20189;-58
2022/07/08 08:55:44;;;;;;;7.47;5.28;;;;;;;28.81;nan;-24613.59;4962260;28;20189;-58
2022/07/08 08:58:10;;;;;;;7.93;5.45;;;;;;;29.48;nan;-24631.50;4955923;28;20189;-59
2022/07/08 09:00:35;;;;;;;8.73;5.00;;;;;;;29.53;nan;-24633.00;4960018;28;20181;-59
2022/07/08 09:03:02;;;;;;;9.43;5.38;;;;;;;29.04;nan;-24619.75;4955849;28;20186;-59
2022/07/08 09:05:28;;;;;;;8.15;5.38;;;;;;;29.35;nan;-24628.22;4958900;28;20192;-59
2022/07/08 09:07:56;;;;;;;8.57;5.50;;;;;;;29.65;nan;-24636.13;4959691;28;20188;-58
2022/07/08 09:10:22;;;;;;;7.00;5.20;;;;;;;29.71;nan;-24637.91;4958233;28;20201;-58
2022/07/08 09:13:04;;;;;;;9.25;5.93;;;;;;;30.42;nan;-24657.00;4960351;28;20177;-59
2022/07/08 09:15:35;;;;;;;11.25;5.80;;;;;;;30.25;nan;-24652.50;4957225;28;20185;-59
2022/07/08 09:18:03;;;;;;;9.15;5.75;;;;;;;30.41;nan;-24656.72;4958299;28;20642;-59
2022/07/08 09:20:40;;;;;;;8.77;5.68;;;;;;;30.58;nan;-24661.34;4958691;28;20820;-59
2022/07/08 09:23:10;;;;;;;9.35;6.00;;;;;;;30.92;nan;-24670.34;4954828;28;20275;-59
2022/07/08 09:25:36;;;;;;;7.97;5.72;;;;;;;29.70;nan;-24637.50;4962176;28;20177;-59
2022/07/08 09:28:01;;;;;;;7.95;5.70;;;;;;;29.07;nan;-24620.56;4958368;28;20177;-58
2022/07/08 09:30:29;;;;;;;9.23;5.38;;;;;;;29.13;nan;-24622.06;4956704;28;20220;-59
2022/07/08 09:33:00;;;;;;;7.93;5.65;;;;;;;29.73;nan;-24638.31;4959371;28;20185;-59
2022/07/08 09:35:31;;;;;;;9.07;6.05;;;;;;;29.88;nan;-24642.25;4958076;28;20199;-58
2022/07/08 09:38:01;;;;;;;7.18;4.63;;;;;;;29.69;nan;-24637.22;4958854;28;20192;-59
2022/07/08 09:40:26;;;;;;;7.93;4.43;;;;;;;30.29;nan;-24653.59;4956630;28;20188;-59
2022/07/08 09:42:52;;;;;;;6.70;4.35;;;;;;;30.40;nan;-24656.44;4959702;28;20719;-60
2022/07/08 09:45:17;;;;;;;6.28;4.07;;;;;;;30.23;nan;-24651.81;4958369;28;20205;-58
2022/07/08 09:47:42;;;;;;;6.47;4.32;;;;;;;30.28;nan;-24653.19;4960015;28;20173;-59
2022/07/08 09:50:08;;;;;;;6.00;4.20;;;;;;;30.36;nan;-24655.34;4955726;28;20588;-59
2022/07/08 09:52:34;;;;;;;5.63;4.15;;;;;;;30.25;nan;-24652.50;4966629;28;20185;-60
2022/07/08 09:55:03;;;;;;;6.47;4.50;;;;;;;30.29;nan;-24653.44;4956046;28;20181;-59
2022/07/08 09:57:30;;;;;;;6.38;4.68;;;;;;;30.12;nan;-24648.81;4958686;28;20188;-58
2022/07/08 09:59:56;;;;;;;7.03;4.63;;;;;;;29.98;nan;-24645.00;4958686;28;20569;-58
2022/07/08 10:02:23;;;;;;;6.30;4.47;;;;;;;30.12;nan;-24648.94;4957855;28;20749;-58
2022/07/08 10:04:52;;;;;;;6.13;3.78;;;;;;;29.37;nan;-24628.63;4959655;28;20185;-59
2022/07/08 10:07:17;;;;;;;5.38;3.97;;;;;;;29.43;nan;-24630.25;4958089;28;20181;-59
2022/07/08 10:09:43;;;;;;;5.45;3.83;;;;;;;29.94;nan;-24644.03;4959878;28;20676;-58
2022/07/08 10:12:13;;;;;;;6.38;3.95;;;;;;;30.14;nan;-24649.38;4959646;28;20340;-60
2022/07/08 10:14:38;;;;;;;5.90;3.80;;;;;;;30.18;nan;-24650.44;4961012;28;20691;-59
2022/07/08 10:17:09;;;;;;;5.55;3.42;;;;;;;29.94;nan;-24643.91;4957263;28;20178;-58
2022/07/08 10:19:40;;;;;;;4.72;3.72;;;;;;;29.31;nan;-24627.13;4962966;28;20229;-58
2022/07/08 10:22:09;;;;;;;5.38;3.90;;;;;;;28.81;nan;-24613.47;4957980;28;20185;-59
2022/07/08 10:24:39;;;;;;;4.82;3.80;;;;;;;28.32;nan;-24600.19;4965136;28;20232;-58
2022/07/08 10:27:05;;;;;;;5.30;3.45;;;;;;;28.64;nan;-24608.94;4954428;28;20178;-57
2022/07/08 10:29:33;;;;;;;5.50;3.33;;;;;;;28.66;nan;-24609.50;4963697;28;20295;-59
2022/07/08 10:32:00;;;;;;;4.15;3.40;;;;;;;28.42;nan;-24602.94;4961255;28;20194;-58
2022/07/08 10:34:29;;;;;;;6.78;3.60;;;;;;;28.77;nan;-24612.50;4961334;28;20216;-58
2022/07/08 10:36:55;;;;;;;4.45;3.10;;;;;;;28.69;nan;-24610.31;4961397;28;20212;-57
2022/07/08 10:39:24;;;;;;;6.50;3.42;;;;;;;28.68;nan;-24610.03;4960648;28;20220;-57
2022/07/08 10:42:03;;;;;;;5.22;3.55;;;;;;;29.10;nan;-24621.25;4961749;28;20173;-59
2022/07/08 10:44:44;;;;;;;6.10;3.45;;;;;;;29.16;nan;-24622.88;4960912;28;20683;-59
2022/07/08 10:47:13;;;;;;;4.93;3.38;;;;;;;29.13;nan;-24622.06;4957361;28;20193;-58
2022/07/08 10:49:42;;;;;;;3.85;3.10;;;;;;;28.88;nan;-24615.50;4965522;28;20237;-58
2022/07/08 10:52:08;;;;;;;4.60;3.15;;;;;;;28.53;nan;-24605.94;4960243;28;20186;-58
2022/07/08 10:54:37;;;;;;;5.30;3.30;;;;;;;29.17;nan;-24623.16;4963865;28;20668;-59
2022/07/08 10:57:27;;;;;;;5.57;3.90;;;;;;;29.27;nan;-24625.88;4962513;28;20186;-58
2022/07/08 11:00:09;;;;;;;5.75;3.85;;;;;;;29.57;nan;-24634.09;4962252;28;20246;-58
2022/07/08 11:02:43;;;;;;;4.93;3.72;;;;;;;29.68;nan;-24637.09;4964435;28;20202;-60
2022/07/08 11:05:37;;;;;;;5.38;3.55;;;;;;;30.02;nan;-24646.09;4957262;28;20691;-58
2022/07/08 11:08:22;;;;;;;5.95;3.67;;;;;;;29.13;nan;-24622.06;4964192;28;20185;-58
2022/07/08 11:10:49;;;;;;;4.53;3.25;;;;;;;29.33;nan;-24627.53;4960118;28;20180;-58
2022/07/08 11:13:14;;;;;;;4.85;3.35;;;;;;;29.13;nan;-24622.19;4960550;28;20205;-59
2022/07/08 11:15:40;;;;;;;4.78;3.40;;;;;;;29.59;nan;-24634.63;4962313;28;20585;-57
2022/07/08 11:18:06;;;;;;;4.63;3.25;;;;;;;29.65;nan;-24636.13;4958714;28;20190;-58
2022/07/08 11:20:32;;;;;;;4.07;3.20;;;;;;;29.89;nan;-24642.53;4961479;28;20295;-58
2022/07/08 11:22:58;;;;;;;4.63;3.22;;;;;;;30.39;nan;-24656.03;4961141;28;20173;-57
2022/07/08 11:25:24;;;;;;;4.00;3.17;;;;;;;30.53;nan;-24660.00;4959671;28;20192;-58
2022/07/08 11:27:50;;;;;;;6.70;3.20;;;;;;;30.65;nan;-24663.25;4957232;28;20185;-58
2022/07/08 11:30:16;;;;;;;5.45;3.05;;;;;;;30.41;nan;-24656.72;4959658;28;20212;-58
2022/07/08 11:32:47;;;;;;;4.65;3.13;;;;;;;30.86;nan;-24668.84;4961554;28;20188;-56
2022/07/08 11:35:13;;;;;;;3.88;3.10;;;;;;;30.99;nan;-24672.38;4959300;28;20204;-57
2022/07/08 11:37:45;;;;;;;3.65;2.83;;;;;;;30.41;nan;-24656.59;4961238;28;20361;-58
2022/07/08 11:40:13;;;;;;;5.00;3.42;;;;;;;30.41;nan;-24656.59;4957318;28;20189;-58
2022/07/08 11:42:40;;;;;;;4.30;3.10;;;;;;;29.95;nan;-24644.19;4952793;28;20243;-58
2022/07/08 11:45:08;;;;;;;3.38;2.63;;;;;;;27.33;nan;-24573.34;4956062;28;20193;-58
2022/07/08 11:47:34;;;;;;;3.75;2.88;;;;;;;30.46;nan;-24658.09;4952780;28;20166;-58